Time;durP1;ratioP1;P1;durP2;ratioP2;P2;SDS_P1;SDS_P2;PMS_P1;PMS_P2;Temp;Humidity;BMP_temperature;BMP_pressure;BME280_temperature;BME280_humidity;BME280_pressure;Samples;Min_cycle;Max_cycle;Signal;HPM_P1;HPM_P2
2020/12/06 00:00:22;;;;;;;17.07;15.67;;;;;;;3.23;79.54;99193.88;5022665;28;20297;-78
2020/12/06 00:02:48;;;;;;;16.57;15.10;;;;;;;3.25;78.94;99189.56;5023523;28;20234;-78
2020/12/06 00:05:14;;;;;;;16.33;14.63;;;;;;;3.24;79.05;99177.56;5022214;28;20237;-79
2020/12/06 00:07:41;;;;;;;17.80;16.23;;;;;;;3.24;79.40;99187.88;5025775;28;20268;-78
2020/12/06 00:10:09;;;;;;;17.90;16.30;;;;;;;3.25;79.56;99187.84;5023128;28;20221;-78
2020/12/06 00:12:36;;;;;;;17.60;16.00;;;;;;;3.24;79.44;99177.56;5027009;28;20534;-77
2020/12/06 00:15:03;;;;;;;18.00;16.50;;;;;;;3.26;79.91;99191.28;5023385;28;20195;-78
2020/12/06 00:17:29;;;;;;;17.10;15.50;;;;;;;3.25;79.78;99203.34;5021326;28;20268;-78
2020/12/06 00:19:54;;;;;;;18.47;16.97;;;;;;;3.26;80.05;99209.34;5023756;28;20214;-79
2020/12/06 00:22:20;;;;;;;17.77;16.27;;;;;;;3.30;80.05;99217.03;5026283;28;20202;-77
2020/12/06 00:24:46;;;;;;;18.00;16.50;;;;;;;3.36;79.24;99229.00;5025007;28;20195;-78
2020/12/06 00:27:13;;;;;;;17.30;15.87;;;;;;;3.33;80.39;99237.63;5022685;28;20284;-77
2020/12/06 00:29:39;;;;;;;17.40;15.90;;;;;;;3.38;79.78;99245.31;5024137;28;20609;-78
2020/12/06 00:32:05;;;;;;;17.07;15.67;;;;;;;3.45;79.69;99251.28;5023482;28;20237;-78
2020/12/06 00:34:31;;;;;;;17.20;15.70;;;;;;;3.47;79.84;99258.16;5021285;28;20194;-79
2020/12/06 00:36:57;;;;;;;17.60;16.07;;;;;;;3.43;80.05;99258.16;5024609;28;20565;-77
2020/12/06 00:39:23;;;;;;;17.70;16.20;;;;;;;3.48;80.12;99253.84;5022931;28;20314;-78
2020/12/06 00:41:49;;;;;;;17.03;14.90;;;;;;;3.52;79.20;99256.34;5023495;28;20290;-78
2020/12/06 00:44:15;;;;;;;16.77;15.37;;;;;;;3.50;78.88;99255.53;5026231;28;20249;-77
2020/12/06 00:46:41;;;;;;;16.73;15.03;;;;;;;3.53;79.11;99252.06;5024984;28;20202;-77
2020/12/06 00:49:07;;;;;;;15.40;14.07;;;;;;;3.45;78.40;99249.56;5025209;28;20213;-79
2020/12/06 00:51:33;;;;;;;17.00;15.40;;;;;;;3.50;79.04;99267.56;5025711;28;20202;-76
2020/12/06 00:53:59;;;;;;;16.00;14.63;;;;;;;3.54;79.16;99261.50;5025016;28;20289;-78
2020/12/06 00:56:25;;;;;;;15.93;14.50;;;;;;;3.52;78.99;99256.34;5026205;28;20204;-79
2020/12/06 00:58:51;;;;;;;16.57;15.07;;;;;;;3.52;78.79;99245.19;5026121;28;20313;-79
2020/12/06 01:01:18;;;;;;;17.17;15.67;;;;;;;3.54;78.56;99246.88;5028839;28;20234;-79
2020/12/06 01:03:45;;;;;;;17.17;15.67;;;;;;;3.52;78.77;99246.03;5030362;28;20202;-77
2020/12/06 01:06:14;;;;;;;16.67;14.97;;;;;;;3.56;78.66;99239.13;5029005;28;20557;-78
2020/12/06 01:08:39;;;;;;;16.93;15.33;;;;;;;3.58;78.76;99229.66;5029260;28;20236;-78
2020/12/06 01:11:05;;;;;;;17.30;15.90;;;;;;;3.56;78.97;99226.22;5028046;28;20207;-78
2020/12/06 01:13:32;;;;;;;16.70;15.17;;;;;;;3.53;78.53;99218.53;5029044;28;20214;-78
2020/12/06 01:15:58;;;;;;;16.77;15.27;;;;;;;3.43;78.79;99222.06;5023182;28;20688;-77
2020/12/06 01:18:24;;;;;;;17.27;15.80;;;;;;;3.43;78.81;99211.75;5023763;28;20227;-79
2020/12/06 01:20:53;;;;;;;17.33;15.80;;;;;;;3.46;79.24;99207.41;5019386;28;20204;-78
2020/12/06 01:23:18;;;;;;;16.57;15.17;;;;;;;3.41;79.45;99205.75;5024968;28;20202;-78
2020/12/06 01:25:44;;;;;;;16.93;15.30;;;;;;;3.36;79.85;99213.53;5019148;28;20204;-77
2020/12/06 01:28:10;;;;;;;17.53;15.93;;;;;;;3.40;79.83;99216.94;5024461;28;20643;-79
2020/12/06 01:30:36;;;;;;;16.73;15.33;;;;;;;3.37;79.76;99212.69;5019597;28;20922;-78
2020/12/06 01:33:02;;;;;;;15.63;14.33;;;;;;;3.43;79.32;99219.47;5024209;28;20608;-78
2020/12/06 01:35:28;;;;;;;16.43;14.90;;;;;;;3.44;79.08;99228.94;5018938;28;20251;-79
2020/12/06 01:37:54;;;;;;;16.30;14.83;;;;;;;3.43;79.28;99227.22;5024073;28;20695;-78
2020/12/06 01:40:20;;;;;;;16.40;15.00;;;;;;;3.37;79.56;99216.09;5019415;28;20222;-78
2020/12/06 01:42:46;;;;;;;16.43;15.03;;;;;;;3.30;79.32;99213.59;5023875;28;20262;-79
2020/12/06 01:45:12;;;;;;;15.63;14.33;;;;;;;3.32;80.02;99215.28;5018465;28;20206;-77
2020/12/06 01:47:38;;;;;;;16.90;15.40;;;;;;;3.28;80.63;99218.75;5022563;28;20244;-78
2020/12/06 01:50:03;;;;;;;16.70;15.20;;;;;;;3.31;80.56;99223.03;5019251;28;20198;-79
2020/12/06 01:52:30;;;;;;;16.63;15.20;;;;;;;3.38;79.68;99224.69;5021641;28;20253;-77
2020/12/06 01:54:57;;;;;;;17.77;15.87;;;;;;;3.33;79.75;99217.00;5019932;28;20203;-78
2020/12/06 01:57:23;;;;;;;16.73;15.13;;;;;;;3.37;80.06;99202.38;5020713;28;20296;-78
2020/12/06 01:59:49;;;;;;;17.50;15.80;;;;;;;3.34;80.06;99195.50;5021066;28;20712;-79
2020/12/06 02:02:15;;;;;;;17.40;15.90;;;;;;;3.35;80.06;99186.03;5019742;28;20653;-79
2020/12/06 02:04:41;;;;;;;16.80;15.20;;;;;;;3.34;80.71;99185.16;5021871;28;20298;-78
2020/12/06 02:07:07;;;;;;;16.77;15.27;;;;;;;3.40;80.61;99180.84;5018360;28;20223;-78
2020/12/06 02:09:34;;;;;;;20.30;16.73;;;;;;;3.31;81.38;99186.91;5023763;28;20202;-79
2020/12/06 02:12:00;;;;;;;17.37;15.93;;;;;;;3.37;80.75;99197.22;5017113;28;20734;-79
2020/12/06 02:14:26;;;;;;;16.67;15.23;;;;;;;3.35;80.90;99202.38;5017554;28;20298;-78
2020/12/06 02:16:53;;;;;;;17.63;16.07;;;;;;;3.44;81.15;99198.84;5017700;28;20210;-78
2020/12/06 02:19:19;;;;;;;16.23;14.83;;;;;;;3.44;81.17;99193.69;5022499;28;20289;-78
2020/12/06 02:21:45;;;;;;;17.23;15.70;;;;;;;3.38;80.89;99197.16;5017304;28;20633;-78
2020/12/06 02:24:14;;;;;;;19.03;17.27;;;;;;;3.43;81.17;99201.41;5021217;28;20215;-79
2020/12/06 02:26:41;;;;;;;18.17;16.57;;;;;;;3.40;80.86;99198.88;5017739;28;20207;-78
2020/12/06 02:29:08;;;;;;;17.83;16.17;;;;;;;3.41;81.24;99191.16;5022659;28;20207;-78
2020/12/06 02:31:34;;;;;;;18.53;16.93;;;;;;;3.33;82.23;99187.75;5017325;28;20561;-78
2020/12/06 02:34:00;;;;;;;17.63;16.00;;;;;;;3.35;81.86;99186.91;5022189;28;20203;-78
2020/12/06 02:36:26;;;;;;;17.70;16.20;;;;;;;3.40;81.13;99186.00;5016600;28;20277;-79
2020/12/06 02:38:53;;;;;;;18.83;16.97;;;;;;;3.44;81.43;99187.66;5022349;28;20592;-79
2020/12/06 02:41:19;;;;;;;18.73;17.03;;;;;;;3.40;81.18;99189.41;5017367;28;20226;-78
2020/12/06 02:43:44;;;;;;;17.33;15.73;;;;;;;3.40;81.55;99192.00;5022760;28;20211;-78
2020/12/06 02:46:11;;;;;;;17.70;16.00;;;;;;;3.45;81.08;99194.53;5017407;28;20207;-78
2020/12/06 02:48:37;;;;;;;19.20;17.50;;;;;;;3.43;81.64;99189.41;5022807;28;20227;-78
2020/12/06 02:51:03;;;;;;;18.17;16.57;;;;;;;3.46;81.47;99185.94;5017314;28;20207;-78
2020/12/06 02:53:29;;;;;;;17.20;15.70;;;;;;;3.43;81.17;99194.56;5023137;28;20230;-78
2020/12/06 02:55:55;;;;;;;16.83;15.23;;;;;;;3.41;81.61;99180.81;5016437;28;20207;-78
2020/12/06 02:58:21;;;;;;;17.30;15.70;;;;;;;3.45;81.04;99174.75;5021802;28;20277;-79
2020/12/06 03:00:47;;;;;;;18.17;16.43;;;;;;;3.45;80.91;99168.72;5016295;28;20223;-78
2020/12/06 03:03:13;;;;;;;16.97;15.27;;;;;;;3.46;81.13;99163.56;5021878;28;20822;-78
2020/12/06 03:05:39;;;;;;;17.47;15.50;;;;;;;3.43;80.68;99161.03;5014601;28;20285;-78
2020/12/06 03:08:04;;;;;;;18.43;16.73;;;;;;;3.45;81.06;99163.56;5011675;28;20742;-77
2020/12/06 03:10:30;;;;;;;16.90;15.40;;;;;;;3.42;80.65;99172.19;5016968;28;20622;-78
2020/12/06 03:12:57;;;;;;;17.93;16.43;;;;;;;3.41;81.35;99182.53;5021293;28;20616;-79
2020/12/06 03:15:23;;;;;;;19.50;17.60;;;;;;;3.42;81.00;99182.53;5016027;28;20203;-77
2020/12/06 03:17:49;;;;;;;18.07;16.30;;;;;;;3.44;81.30;99175.63;5021271;28;20769;-77
2020/12/06 03:20:14;;;;;;;17.70;16.07;;;;;;;3.47;81.04;99159.25;5016533;28;20258;-79
2020/12/06 03:22:40;;;;;;;19.40;17.53;;;;;;;3.45;81.28;99151.53;5019736;28;20289;-78
2020/12/06 03:25:06;;;;;;;19.43;17.63;;;;;;;3.46;80.98;99149.81;5016963;28;20203;-79
2020/12/06 03:27:32;;;;;;;20.63;18.43;;;;;;;3.45;81.19;99143.81;5019353;28;20222;-78
2020/12/06 03:29:59;;;;;;;19.80;17.80;;;;;;;3.41;81.19;99141.25;5017953;28;20621;-78
2020/12/06 03:32:25;;;;;;;20.80;18.70;;;;;;;3.44;80.86;99143.81;5019093;28;20210;-77
2020/12/06 03:34:51;;;;;;;20.27;18.20;;;;;;;3.47;80.66;99146.34;5019037;28;20744;-78
2020/12/06 03:37:17;;;;;;;20.57;18.53;;;;;;;3.43;80.47;99144.69;5017856;28;20965;-78
2020/12/06 03:39:43;;;;;;;21.30;18.93;;;;;;;3.44;80.58;99142.09;5020413;28;20218;-78
2020/12/06 03:42:08;;;;;;;19.33;17.50;;;;;;;3.45;80.93;99136.06;5016490;28;20719;-78
2020/12/06 03:44:34;;;;;;;19.30;17.33;;;;;;;3.44;80.95;99141.25;5020911;28;20206;-77
2020/12/06 03:47:01;;;;;;;21.23;19.03;;;;;;;3.38;81.35;99153.31;5016050;28;20207;-78
2020/12/06 03:49:27;;;;;;;20.93;18.73;;;;;;;3.41;81.49;99154.16;5015967;28;20261;-78
2020/12/06 03:51:53;;;;;;;19.83;17.97;;;;;;;3.43;81.10;99142.97;5016014;28;20207;-78
2020/12/06 03:54:18;;;;;;;20.90;18.73;;;;;;;3.46;81.66;99150.66;5021004;28;20203;-78
2020/12/06 03:56:44;;;;;;;20.40;18.30;;;;;;;3.43;81.53;99142.97;5015400;28;20298;-78
2020/12/06 03:59:10;;;;;;;20.27;18.27;;;;;;;3.50;81.09;99152.34;5021002;28;20250;-77
2020/12/06 04:01:36;;;;;;;21.33;19.10;;;;;;;3.51;81.08;99154.06;5016183;28;20281;-78
2020/12/06 04:04:03;;;;;;;21.20;19.00;;;;;;;3.47;81.41;99142.06;5021099;28;20239;-79
2020/12/06 04:06:28;;;;;;;21.70;19.50;;;;;;;3.47;81.25;99134.31;5014945;28;20627;-77
2020/12/06 04:08:54;;;;;;;20.37;18.40;;;;;;;3.55;80.79;99141.97;5020943;28;20293;-78
2020/12/06 04:11:20;;;;;;;20.17;18.13;;;;;;;3.54;81.03;99135.94;5015243;28;20209;-78
2020/12/06 04:13:46;;;;;;;21.60;19.47;;;;;;;3.54;80.79;99125.63;5016356;28;20645;-78
2020/12/06 04:16:12;;;;;;;22.03;19.77;;;;;;;3.46;81.56;99136.91;5015382;28;20665;-78
2020/12/06 04:18:38;;;;;;;20.13;18.13;;;;;;;3.48;81.63;99141.19;5019501;28;20285;-78
2020/12/06 04:21:05;;;;;;;25.03;19.30;;;;;;;3.52;81.49;99145.44;5006522;28;20217;-78
2020/12/06 04:23:30;;;;;;;22.53;18.97;;;;;;;3.46;81.71;99145.50;5014162;28;20210;-79
2020/12/06 04:25:56;;;;;;;19.87;18.03;;;;;;;3.54;81.51;99140.25;5015457;28;20719;-78
2020/12/06 04:28:22;;;;;;;19.90;18.00;;;;;;;3.52;81.92;99147.16;5019985;28;20227;-79
2020/12/06 04:30:48;;;;;;;20.07;18.13;;;;;;;3.53;81.22;99141.16;5015156;28;20217;-78
2020/12/06 04:33:14;;;;;;;19.53;17.67;;;;;;;3.54;81.51;99148.84;5021257;28;20257;-77
2020/12/06 04:35:43;;;;;;;21.30;19.30;;;;;;;3.55;81.53;99142.81;5007375;28;20225;-78
2020/12/06 04:38:09;;;;;;;21.13;18.97;;;;;;;3.55;80.74;99129.09;5014647;28;20224;-78
2020/12/06 04:40:35;;;;;;;20.67;18.53;;;;;;;3.54;81.03;99125.63;5019336;28;20226;-78
2020/12/06 04:43:01;;;;;;;20.43;18.30;;;;;;;3.52;81.03;99122.22;5024700;28;20205;-79
2020/12/06 04:45:28;;;;;;;19.33;17.33;;;;;;;3.56;81.07;99123.03;5019489;28;20692;-78
2020/12/06 04:48:03;;;;;;;20.70;18.50;;;;;;;3.52;81.35;99119.63;5024393;28;20218;-78
2020/12/06 04:50:32;;;;;;;20.27;18.00;;;;;;;3.53;81.36;99116.19;5019059;28;20676;-78
2020/12/06 04:52:59;;;;;;;20.40;18.23;;;;;;;3.47;82.05;99107.66;5023542;28;20664;-78
2020/12/06 04:55:28;;;;;;;19.60;17.53;;;;;;;3.46;81.41;99093.91;5010831;28;20210;-78
2020/12/06 04:57:56;;;;;;;20.60;18.60;;;;;;;3.48;82.02;99097.31;5015802;28;20222;-78
2020/12/06 05:00:30;;;;;;;21.03;18.87;;;;;;;3.50;81.53;99089.56;5011468;28;20292;-78
2020/12/06 05:02:59;;;;;;;19.07;17.37;;;;;;;3.55;81.71;99095.53;5003156;28;20214;-78
2020/12/06 05:05:33;;;;;;;19.90;17.90;;;;;;;3.56;81.78;99100.66;5006470;28;20615;-78
2020/12/06 05:08:02;;;;;;;20.00;18.10;;;;;;;3.60;81.26;99090.31;5009435;28;20227;-78
2020/12/06 05:10:30;;;;;;;20.40;18.43;;;;;;;3.57;81.50;99086.91;5007550;28;20200;-78
2020/12/06 05:12:56;;;;;;;19.53;17.53;;;;;;;3.57;81.51;99083.47;5008869;28;20250;-78
2020/12/06 05:15:22;;;;;;;21.30;19.00;;;;;;;3.48;82.21;99091.31;5013901;28;20207;-78
2020/12/06 05:17:48;;;;;;;19.87;17.90;;;;;;;3.52;82.34;99088.69;5018287;28;20631;-78
2020/12/06 05:20:13;;;;;;;21.83;18.83;;;;;;;3.50;82.22;99093.00;5008784;28;20759;-78
2020/12/06 05:22:45;;;;;;;20.93;18.77;;;;;;;3.49;82.82;99095.59;5003585;28;20297;-78
2020/12/06 05:25:11;;;;;;;20.40;18.30;;;;;;;3.50;82.69;99097.31;5010786;28;20298;-78
2020/12/06 05:27:38;;;;;;;21.73;19.00;;;;;;;3.51;82.18;99088.72;5010809;28;20244;-78
2020/12/06 05:30:04;;;;;;;20.43;18.47;;;;;;;3.45;81.97;99063.84;5010495;28;20195;-78
2020/12/06 05:32:30;;;;;;;22.70;20.30;;;;;;;3.46;82.03;99085.31;5011519;28;20897;-78
2020/12/06 05:34:57;;;;;;;21.63;19.40;;;;;;;3.45;82.07;99092.22;5012198;28;20235;-79
2020/12/06 05:37:23;;;;;;;20.93;18.73;;;;;;;3.56;82.44;99104.97;5008092;28;20223;-78
2020/12/06 05:40:00;;;;;;;20.17;18.17;;;;;;;3.58;82.34;99091.19;5011235;28;20276;-77
2020/12/06 05:42:26;;;;;;;20.93;18.83;;;;;;;3.57;82.31;99089.47;5012082;28;20661;-78
2020/12/06 05:44:56;;;;;;;20.83;18.73;;;;;;;3.54;82.33;99106.72;5012356;28;20254;-78
2020/12/06 05:47:22;;;;;;;20.10;18.10;;;;;;;3.56;82.75;99098.09;5011681;28;20227;-78
2020/12/06 05:49:48;;;;;;;20.63;18.43;;;;;;;3.46;82.00;99080.16;5013017;28;20261;-78
2020/12/06 05:52:15;;;;;;;21.10;18.97;;;;;;;3.45;82.71;99078.44;5007421;28;20203;-78
2020/12/06 05:54:41;;;;;;;21.27;19.13;;;;;;;3.44;83.03;99082.75;5017199;28;20249;-78
2020/12/06 05:57:08;;;;;;;23.50;19.13;;;;;;;3.46;83.17;99086.16;5013736;28;20226;-78
2020/12/06 05:59:34;;;;;;;20.00;17.87;;;;;;;3.47;82.42;99089.59;5011490;28;20228;-78
2020/12/06 06:02:01;;;;;;;22.00;19.70;;;;;;;3.46;82.13;99075.00;5006231;28;20860;-78
2020/12/06 06:04:29;;;;;;;22.47;20.00;;;;;;;3.46;82.78;99093.91;5019917;28;20230;-78
2020/12/06 06:06:57;;;;;;;19.93;18.03;;;;;;;3.43;82.33;99096.53;5006551;28;20930;-78
2020/12/06 06:09:27;;;;;;;22.20;19.87;;;;;;;3.43;82.92;99099.13;5020953;28;20619;-78
2020/12/06 06:12:00;;;;;;;22.87;20.53;;;;;;;3.47;82.78;99094.75;5008259;28;20552;-78
2020/12/06 06:14:28;;;;;;;20.73;18.53;;;;;;;3.48;82.18;99093.91;5021464;28;20269;-78
2020/12/06 06:16:55;;;;;;;22.83;19.00;;;;;;;3.50;82.07;99090.41;5008347;28;20235;-78
2020/12/06 06:19:23;;;;;;;19.87;17.77;;;;;;;3.44;82.18;99076.75;5017631;28;20623;-78
2020/12/06 06:21:49;;;;;;;20.77;18.57;;;;;;;3.44;82.69;99075.03;5005911;28;20210;-78
2020/12/06 06:24:22;;;;;;;21.63;19.10;;;;;;;3.44;82.94;99063.84;5010591;28;20296;-78
2020/12/06 06:26:49;;;;;;;20.80;18.53;;;;;;;3.43;83.11;99073.31;5006847;28;20269;-78
2020/12/06 06:29:16;;;;;;;19.87;17.97;;;;;;;3.47;82.74;99077.56;5013200;28;20717;-78
2020/12/06 06:31:45;;;;;;;22.97;18.97;;;;;;;3.46;82.82;99075.00;4998993;28;20583;-78
2020/12/06 06:34:11;;;;;;;21.80;19.33;;;;;;;3.45;82.95;99071.59;5011550;28;20558;-77
2020/12/06 06:36:38;;;;;;;21.40;19.20;;;;;;;3.50;83.01;99069.78;4998983;28;20226;-78
2020/12/06 06:39:05;;;;;;;21.40;19.13;;;;;;;3.50;83.25;99087.00;5013527;28;20225;-78
2020/12/06 06:41:32;;;;;;;20.77;18.67;;;;;;;3.53;82.79;99077.50;4999363;28;20560;-78
2020/12/06 06:43:59;;;;;;;24.47;19.10;;;;;;;3.57;83.02;99061.09;5007406;28;20733;-78
2020/12/06 06:46:31;;;;;;;22.43;19.70;;;;;;;3.61;82.72;99081.69;5009625;28;20205;-78
2020/12/06 06:48:57;;;;;;;24.47;20.30;;;;;;;3.56;82.40;99074.88;5015609;28;20223;-78
2020/12/06 06:51:24;;;;;;;20.13;18.07;;;;;;;3.56;82.17;99067.13;5000421;28;20203;-77
2020/12/06 06:53:55;;;;;;;22.90;19.40;;;;;;;3.56;82.78;99084.34;5012125;28;20262;-78
2020/12/06 06:56:22;;;;;;;23.67;19.93;;;;;;;3.53;82.57;99099.88;5003262;28;20273;-78
2020/12/06 06:58:48;;;;;;;23.83;19.87;;;;;;;3.57;82.27;99094.66;5012589;28;20278;-77
2020/12/06 07:01:19;;;;;;;22.30;19.17;;;;;;;3.53;82.20;99092.97;5003631;28;20225;-78
2020/12/06 07:03:47;;;;;;;20.40;18.30;;;;;;;3.55;82.35;99085.22;5012654;28;20681;-79
2020/12/06 07:06:44;;;;;;;21.77;19.13;;;;;;;3.60;82.56;99082.56;5002433;28;20258;-78
2020/12/06 07:09:11;;;;;;;24.63;19.97;;;;;;;3.57;82.46;99081.75;5006443;28;20207;-78
2020/12/06 07:11:37;;;;;;;23.47;19.13;;;;;;;3.53;82.09;99072.34;5005511;28;20669;-78
2020/12/06 07:14:03;;;;;;;22.47;19.60;;;;;;;3.56;82.45;99067.13;5010300;28;20669;-78
2020/12/06 07:16:29;;;;;;;22.27;18.83;;;;;;;3.60;82.42;99074.84;5011547;28;20275;-78
2020/12/06 07:18:55;;;;;;;23.63;20.40;;;;;;;3.60;82.76;99056.78;5008663;28;20259;-78
2020/12/06 07:21:21;;;;;;;24.50;20.43;;;;;;;3.56;82.97;99068.84;5011748;28;20223;-77
2020/12/06 07:23:46;;;;;;;21.00;18.77;;;;;;;3.55;82.59;99065.44;5011409;28;20740;-78
2020/12/06 07:26:13;;;;;;;22.20;19.87;;;;;;;3.54;82.41;99044.81;5012854;28;20289;-78
2020/12/06 07:28:39;;;;;;;22.93;20.43;;;;;;;3.53;82.60;99023.31;5009308;28;20250;-77
2020/12/06 07:31:05;;;;;;;24.70;19.70;;;;;;;3.55;82.43;99016.41;5007324;28;20200;-77
2020/12/06 07:33:31;;;;;;;24.83;19.50;;;;;;;3.56;81.99;99018.09;5008053;28;20290;-77
2020/12/06 07:35:57;;;;;;;23.20;19.80;;;;;;;3.53;82.63;99038.81;5009604;28;20253;-78
2020/12/06 07:38:23;;;;;;;21.40;19.33;;;;;;;3.56;82.71;99025.00;5011483;28;20226;-77
2020/12/06 07:41:01;;;;;;;23.80;20.53;;;;;;;3.48;82.31;99027.69;5010310;28;20262;-77
2020/12/06 07:43:28;;;;;;;23.33;20.53;;;;;;;3.44;82.88;99038.91;5015520;28;20230;-77
2020/12/06 07:45:54;;;;;;;31.53;22.00;;;;;;;3.46;82.77;99041.47;5007637;28;20205;-78
2020/12/06 07:48:20;;;;;;;25.30;20.50;;;;;;;3.51;82.63;99031.97;5008158;28;20650;-78
2020/12/06 07:50:46;;;;;;;25.30;21.47;;;;;;;3.51;82.85;99045.72;5008691;28;20211;-79
2020/12/06 07:53:12;;;;;;;23.27;20.77;;;;;;;3.50;83.09;99050.88;5010909;28;20215;-78
2020/12/06 07:55:38;;;;;;;23.97;20.57;;;;;;;3.54;82.55;99045.66;5010739;28;20293;-78
2020/12/06 07:58:11;;;;;;;28.33;21.30;;;;;;;3.57;82.31;99030.16;5013232;28;20705;-78
2020/12/06 08:00:39;;;;;;;24.90;21.53;;;;;;;3.61;81.85;99004.28;5012752;28;20225;-78
2020/12/06 08:03:05;;;;;;;26.47;20.93;;;;;;;3.60;82.00;99015.50;5007792;28;20203;-78
2020/12/06 08:05:35;;;;;;;28.80;22.87;;;;;;;3.61;82.08;99027.50;5011549;28;20725;-77
2020/12/06 08:08:05;;;;;;;30.27;25.07;;;;;;;3.60;81.84;99018.06;5014156;28;20228;-77
2020/12/06 08:10:33;;;;;;;30.03;22.53;;;;;;;3.56;81.63;99020.69;5014406;28;20253;-79
2020/12/06 08:12:59;;;;;;;29.97;25.00;;;;;;;3.61;81.95;99030.97;5010379;28;20214;-78
2020/12/06 08:15:26;;;;;;;38.07;26.60;;;;;;;3.67;81.90;99014.56;5013605;28;20203;-78
2020/12/06 08:17:54;;;;;;;27.97;24.63;;;;;;;3.70;81.34;98999.00;5008039;28;20229;-78
2020/12/06 08:20:22;;;;;;;27.97;23.33;;;;;;;3.69;81.06;98990.41;5011161;28;20276;-78
2020/12/06 08:22:49;;;;;;;28.80;23.77;;;;;;;3.70;81.57;98978.38;5008775;28;20198;-78
2020/12/06 08:25:15;;;;;;;31.57;26.13;;;;;;;3.73;81.09;98980.91;5013524;28;20210;-78
2020/12/06 08:27:44;;;;;;;27.50;22.27;;;;;;;3.72;81.19;98977.47;5018184;28;20222;-78
2020/12/06 08:30:14;;;;;;;29.27;24.27;;;;;;;3.74;80.88;98980.88;5011611;28;20720;-78
2020/12/06 08:32:40;;;;;;;33.40;24.83;;;;;;;3.72;81.28;98981.78;5006283;28;20245;-79
2020/12/06 08:35:07;;;;;;;30.93;24.23;;;;;;;3.72;81.39;98999.84;5005834;28;20207;-78
2020/12/06 08:37:34;;;;;;;36.60;27.57;;;;;;;3.71;81.35;99004.16;5009442;28;20225;-78
2020/12/06 08:40:02;;;;;;;30.90;23.97;;;;;;;3.67;81.53;99009.38;5014129;28;20249;-79
2020/12/06 08:42:28;;;;;;;27.03;22.70;;;;;;;3.68;81.91;99016.25;5010939;28;20199;-78
2020/12/06 08:44:57;;;;;;;31.63;23.67;;;;;;;3.71;81.36;99011.06;5008315;28;20637;-78
2020/12/06 08:47:24;;;;;;;50.97;32.80;;;;;;;3.73;81.53;98999.81;5018343;28;20225;-79
2020/12/06 08:50:02;;;;;;;36.67;27.83;;;;;;;3.70;81.39;99004.16;5018414;28;20199;-79
2020/12/06 08:52:29;;;;;;;39.97;29.97;;;;;;;3.81;81.19;99006.63;5021024;28;20202;-79
2020/12/06 08:54:55;;;;;;;32.77;26.10;;;;;;;3.82;81.45;98996.25;5017099;28;20258;-79
2020/12/06 08:57:24;;;;;;;46.80;31.23;;;;;;;3.82;81.14;99003.97;5018815;28;20306;-79
2020/12/06 08:59:50;;;;;;;42.10;30.20;;;;;;;3.86;81.18;98990.16;5016390;28;20539;-79
2020/12/06 09:02:21;;;;;;;29.47;23.60;;;;;;;3.84;80.91;98997.06;5021491;28;20940;-78
2020/12/06 09:04:47;;;;;;;26.77;21.83;;;;;;;3.80;81.08;98994.56;5019422;28;20281;-78
2020/12/06 09:07:13;;;;;;;30.37;25.13;;;;;;;3.84;80.98;98988.47;5019321;28;20227;-78
2020/12/06 09:09:39;;;;;;;27.53;23.57;;;;;;;3.84;80.96;98996.22;5020737;28;20245;-78
2020/12/06 09:12:05;;;;;;;29.13;23.30;;;;;;;3.84;81.51;98985.91;5017853;28;20194;-79
2020/12/06 09:14:31;;;;;;;30.53;24.47;;;;;;;3.83;81.13;98995.38;5019257;28;20202;-78
2020/12/06 09:16:57;;;;;;;31.70;25.33;;;;;;;3.87;80.99;98989.28;5018380;28;20226;-79
2020/12/06 09:19:26;;;;;;;30.27;23.80;;;;;;;3.95;81.73;99008.09;5022493;28;20206;-78
2020/12/06 09:21:52;;;;;;;29.07;22.73;;;;;;;3.97;81.16;98996.00;5021879;28;20226;-79
2020/12/06 09:24:18;;;;;;;36.33;31.15;;;;;;;4.01;81.47;99014.91;5018259;28;20449;-78
2020/12/06 09:26:44;;;;;;;32.20;25.83;;;;;;;4.04;80.68;99020.00;5021112;28;20200;-78
2020/12/06 09:29:10;;;;;;;36.53;26.83;;;;;;;4.05;80.79;99018.28;5020385;28;20259;-77
2020/12/06 09:31:36;;;;;;;39.07;26.17;;;;;;;4.04;80.06;99006.25;5019178;28;20240;-79
2020/12/06 09:34:03;;;;;;;30.77;24.93;;;;;;;4.03;80.40;99007.13;5016534;28;20301;-78
2020/12/06 09:36:29;;;;;;;29.03;23.63;;;;;;;4.06;80.41;99004.50;5006327;28;20249;-79
2020/12/06 09:38:55;;;;;;;25.80;23.00;;;;;;;4.09;79.96;98992.38;5009082;28;20230;-78
2020/12/06 09:41:21;;;;;;;29.80;24.47;;;;;;;4.06;80.04;99007.06;5007140;28;20231;-79
2020/12/06 09:43:48;;;;;;;30.37;23.27;;;;;;;4.04;80.12;99001.94;5015369;28;20262;-78
2020/12/06 09:46:14;;;;;;;30.53;23.53;;;;;;;4.06;80.26;98989.00;5011459;28;20282;-79
2020/12/06 09:48:41;;;;;;;27.00;23.43;;;;;;;4.03;80.45;99005.41;5014146;28;20274;-77
2020/12/06 09:51:08;;;;;;;32.93;24.97;;;;;;;3.95;80.84;98986.59;5013508;28;20200;-81
2020/12/06 09:53:34;;;;;;;29.77;23.63;;;;;;;4.01;81.01;99001.16;5017074;28;20203;-81
2020/12/06 09:56:00;;;;;;;30.63;24.60;;;;;;;4.03;80.96;98986.47;5014368;28;20204;-81
2020/12/06 09:58:26;;;;;;;31.67;25.13;;;;;;;4.08;80.49;98979.50;5018090;28;20230;-80
2020/12/06 10:00:52;;;;;;;31.27;25.10;;;;;;;4.11;81.10;98976.88;5015074;28;20282;-80
2020/12/06 10:03:18;;;;;;;38.17;28.93;;;;;;;4.17;80.04;98967.28;5013728;28;20213;-81
2020/12/06 10:05:44;;;;;;;34.77;25.07;;;;;;;4.16;80.33;98955.28;5013140;28;20200;-79
2020/12/06 10:08:10;;;;;;;32.03;24.80;;;;;;;4.16;80.71;98964.72;5009834;28;20268;-81
2020/12/06 10:10:36;;;;;;;35.60;26.60;;;;;;;4.19;80.54;98964.69;5015321;28;20213;-80
2020/12/06 10:13:02;;;;;;;31.07;24.73;;;;;;;4.19;79.84;98967.28;5011894;28;20229;-80
2020/12/06 10:15:28;;;;;;;26.03;22.47;;;;;;;4.18;79.69;98958.69;5014575;28;20210;-81
2020/12/06 10:17:54;;;;;;;28.70;22.80;;;;;;;4.20;79.46;98950.03;5012504;28;20253;-78
2020/12/06 10:20:20;;;;;;;27.70;24.13;;;;;;;4.19;79.59;98941.44;5010924;28;20219;-78
2020/12/06 10:22:46;;;;;;;37.87;26.83;;;;;;;4.18;79.80;98943.19;5008469;28;20289;-78
2020/12/06 10:25:12;;;;;;;28.50;24.80;;;;;;;4.24;79.96;98951.69;5006146;28;20219;-78
2020/12/06 10:27:38;;;;;;;26.47;22.87;;;;;;;4.25;79.94;98956.00;5009928;28;20221;-78
2020/12/06 10:30:04;;;;;;;32.73;25.00;;;;;;;4.28;79.71;98946.47;4999988;28;20205;-79
2020/12/06 10:32:30;;;;;;;31.17;24.13;;;;;;;4.30;79.46;98939.53;5013706;28;20257;-78
2020/12/06 10:34:57;;;;;;;26.30;22.90;;;;;;;4.27;79.69;98937.00;4998749;28;20571;-78
2020/12/06 10:37:23;;;;;;;30.03;24.07;;;;;;;4.24;79.71;98947.41;5007858;28;20790;-78
2020/12/06 10:39:49;;;;;;;33.67;25.20;;;;;;;4.22;79.84;98943.97;5010413;28;20211;-78
2020/12/06 10:42:15;;;;;;;31.37;24.70;;;;;;;4.25;79.83;98938.75;5006349;28;20306;-78
2020/12/06 10:44:41;;;;;;;41.80;29.17;;;;;;;4.24;79.79;98947.41;5011458;28;20289;-78
2020/12/06 10:47:07;;;;;;;35.00;25.10;;;;;;;4.30;79.68;98936.06;5008878;28;20242;-78
2020/12/06 10:49:33;;;;;;;28.77;23.10;;;;;;;4.25;79.31;98931.00;5007926;28;20660;-78
2020/12/06 10:51:59;;;;;;;31.83;24.97;;;;;;;4.26;79.27;98937.00;5003409;28;20199;-78
2020/12/06 10:54:25;;;;;;;39.70;29.40;;;;;;;4.22;80.40;98927.63;5008279;28;20619;-79
2020/12/06 10:56:51;;;;;;;35.03;26.03;;;;;;;4.24;79.45;98920.69;4997379;28;20294;-79
2020/12/06 10:59:17;;;;;;;33.03;26.27;;;;;;;4.24;79.81;98931.03;5021644;28;20206;-81
2020/12/06 11:01:43;;;;;;;34.10;26.40;;;;;;;4.24;79.96;98938.78;5010449;28;20227;-81
2020/12/06 11:04:08;;;;;;;37.13;28.20;;;;;;;4.27;80.22;98933.56;5014635;28;20668;-82
2020/12/06 11:06:34;;;;;;;33.93;27.07;;;;;;;4.24;80.29;98915.53;5013845;28;20255;-81
2020/12/06 11:09:01;;;;;;;31.70;25.87;;;;;;;4.27;79.87;98906.00;5005584;28;20371;-81
2020/12/06 11:11:27;;;;;;;30.97;25.17;;;;;;;4.25;79.94;98912.94;5005641;28;20202;-82
2020/12/06 11:13:53;;;;;;;34.77;28.33;;;;;;;4.32;79.82;98916.25;5022453;28;20207;-83
2020/12/06 11:16:20;;;;;;;31.67;25.30;;;;;;;4.32;79.80;98913.66;5008851;28;20582;-83
2020/12/06 11:18:47;;;;;;;43.37;32.33;;;;;;;4.37;79.62;98907.53;5017629;28;20222;-82
2020/12/06 11:21:15;;;;;;;36.60;26.67;;;;;;;4.38;79.84;98911.00;5005684;28;20242;-82